Impacts METAR Board
IDs:

KHYI - San Marcos Muni, TX, US

Updated at: 1700 UTC 16 Oct 2021
Potential Impact None Slight Moderate High
Time 16/05Z 16/06Z 16/07Z 16/08Z 16/09Z 16/10Z 16/11Z 16/12Z 16/13Z 16/14Z 16/15Z 16/16Z 16/17Z
Temp66 64 63 62 60 58 56 55 54 60 64 67 68
Dewpt50 48 47 46 45 45 46 46 47 47 48 47 44
Altim30.22 30.22 30.25 30.25 30.26 30.27 30.29 30.32 30.34 30.36 30.38 30.38 30.38
VIS10 10 10 10 10 10 10 10 10 10 10 10 10
CIG-- -- -- -- -- -- -- -- -- -- -- -- --
CoverCLRCLRSCTCLRCLRCLRCLRCLRCLRCLRCLRCLRCLR
FltCatVFRVFRVFRVFRVFRVFRVFRVFRVFRVFRVFRVFRVFR
WX--------------------------
WDir1010360103601036036036020402030
WSpd14 15 13 12 11 10 8 7 7 9 12 16 13
WGst-- -- -- -- -- -- -- -- -- -- -- 20 18
Raw hourly METARs
KHYI 160456Z AUTO 01014KT 10SM CLR 19/10 A3022 RMK AO2 SLP225 T01890100 PNO $
KHYI 160556Z AUTO 01015KT 10SM CLR 18/09 A3022 RMK AO2 SLP226 6//// T01780089 10233 20178 403220178 51021 PNO $
KHYI 160656Z AUTO 36013KT 10SM SCT085 17/08 A3025 RMK AO2 SLP234 T01720083 PNO $
KHYI 160756Z AUTO 01012KT 10SM CLR 17/08 A3025 RMK AO2 SLP234 T01670078 PNO $
KHYI 160856Z AUTO 36011KT 10SM CLR 16/07 A3026 RMK AO2 SLP238 6//// T01560072 51011 PNO $
KHYI 160956Z AUTO 01010KT 10SM CLR 14/07 A3027 RMK AO2 SLP243 T01440072 PNO $
KHYI 161056Z AUTO 36008KT 10SM CLR 13/08 A3029 RMK AO2 SLP249 T01330078 PNO $
KHYI 161156Z 36007KT 10SM CLR 13/08 A3032 RMK AO2 SLP262 6//// 7//// T01280078 10178 20128 53022 PNO $
KHYI 161256Z 36007KT 10SM CLR 12/08 A3034 RMK AO2 SLP269 T01220083 PNO $
KHYI 161356Z 02009KT 10SM CLR 16/08 A3036 RMK AO2 SLP275 T01560083 PNO $
KHYI 161456Z 04012KT 10SM CLR 18/09 A3038 RMK AO2 SLP279 6//// T01780089 51018 PNO $
KHYI 161556Z 02016G20KT 10SM CLR 19/08 A3038 RMK AO2 SLP282 T01940083 PNO $
KHYI 161656Z 03013G18KT 10SM CLR 20/07 A3038 RMK AO2 SLP281 T02000067 PNO $